createdAt,value
2023-05-22T00:02:11.214Z,97454.38
2023-05-22T00:04:40.275Z,97266.09
2023-05-22T00:07:10.072Z,97448.06
2023-05-22T00:09:38.345Z,97456.22
2023-05-22T00:12:07.154Z,97450.81
2023-05-22T00:14:35.446Z,97444.66
2023-05-22T00:17:03.695Z,97442.25
2023-05-22T00:19:33.386Z,97440.88
2023-05-22T00:22:01.702Z,97441.81
2023-05-22T00:24:32.030Z,97436.84
2023-05-22T00:27:00.288Z,97435.22
2023-05-22T00:29:28.528Z,97434.59
2023-05-22T00:31:56.754Z,97438.44
2023-05-22T00:34:25.032Z,97429.72
2023-05-22T00:36:53.357Z,97430.66
2023-05-22T00:39:21.927Z,97423.34
2023-05-22T00:41:51.614Z,97423.78
2023-05-22T00:44:19.800Z,97407.81
2023-05-22T00:46:48.048Z,97415.53
2023-05-22T00:49:16.257Z,97415.22
2023-05-22T00:51:44.562Z,97417.78
2023-05-22T00:54:14.089Z,97422.16
2023-05-22T00:56:43.202Z,97416.16
2023-05-22T00:59:12.912Z,97392.72
2023-05-22T01:01:43.094Z,97405.50
2023-05-22T01:04:12.937Z,97398.63
2023-05-22T01:06:41.557Z,97386.84
2023-05-22T01:09:09.904Z,97409.84
2023-05-22T01:11:46.308Z,97399.06
2023-05-22T01:14:23.965Z,97410.47
2023-05-22T01:17:00.237Z,97397.88
2023-05-22T01:20:01.624Z,97445.84
2023-05-22T01:23:03.593Z,97460.13
2023-05-22T01:26:03.886Z,97464.59
2023-05-22T01:28:57.186Z,97450.22
2023-05-22T01:31:28.939Z,97429.31
2023-05-22T01:33:58.765Z,97417.56
2023-05-22T01:36:32.042Z,97412.81
2023-05-22T01:39:01.789Z,97414.97
2023-05-22T01:41:30.751Z,97420.81
2023-05-22T01:43:59.293Z,97419.50
2023-05-22T01:46:29.439Z,97403.34
2023-05-22T01:48:57.843Z,97430.91
2023-05-22T01:51:34.998Z,97415.53
2023-05-22T01:54:09.518Z,97427.84
2023-05-22T01:56:49.099Z,97433.06
2023-05-22T01:59:23.674Z,97422.47
2023-05-22T02:01:55.473Z,97425.78
2023-05-22T02:04:24.770Z,97381.31
2023-05-22T02:06:55.310Z,97411.59
2023-05-22T02:09:27.358Z,97417.03
2023-05-22T02:11:55.753Z,97407.50
2023-05-22T02:14:24.110Z,97413.53
2023-05-22T02:16:53.921Z,97413.63
2023-05-22T02:19:22.310Z,97368.22
2023-05-22T02:21:50.710Z,97410.75
2023-05-22T02:24:19.023Z,97407.69
2023-05-22T02:26:47.938Z,97405.47
2023-05-22T02:29:16.345Z,97409.91
2023-05-22T02:31:44.617Z,97397.75
2023-05-22T02:34:14.581Z,97399.38
2023-05-22T02:36:43.244Z,97382.31
2023-05-22T02:39:11.543Z,97398.53
2023-05-22T02:41:39.773Z,97394.28
2023-05-22T02:44:07.899Z,97396.91
2023-05-22T02:46:36.334Z,97397.59
2023-05-22T02:49:04.779Z,97370.69
2023-05-22T02:51:34.490Z,97396.19
2023-05-22T02:54:02.711Z,97385.00
2023-05-22T02:56:31.327Z,97388.25
2023-05-22T02:58:59.495Z,97385.16
2023-05-22T03:01:30.659Z,97295.19
2023-05-22T03:03:59.073Z,97398.53
2023-05-22T03:06:27.300Z,97401.03
2023-05-22T03:08:56.952Z,97366.13
2023-05-22T03:11:25.238Z,97398.13
2023-05-22T03:13:53.482Z,97407.91
2023-05-22T03:16:21.761Z,97402.03
2023-05-22T03:18:51.814Z,97397.84
2023-05-22T03:21:20.065Z,97391.28
2023-05-22T03:23:49.459Z,97395.81
2023-05-22T03:26:19.096Z,97398.34
2023-05-22T03:28:47.613Z,97339.50
2023-05-22T03:31:15.875Z,97381.88
2023-05-22T03:33:44.177Z,97394.06
2023-05-22T03:36:12.528Z,97331.50
2023-05-22T03:38:41.664Z,97391.44
2023-05-22T03:41:10.052Z,97391.38
2023-05-22T03:43:40.349Z,97391.19
2023-05-22T03:46:10.856Z,97386.94
2023-05-22T03:48:40.584Z,97380.88
2023-05-22T03:51:08.827Z,97352.06
2023-05-22T03:53:36.993Z,97381.72
2023-05-22T03:56:05.345Z,97380.41
2023-05-22T03:58:33.586Z,97382.66
2023-05-22T04:01:03.864Z,97383.59
2023-05-22T04:03:32.304Z,97378.94
2023-05-22T04:06:00.564Z,97395.75
2023-05-22T04:08:28.689Z,97396.53
2023-05-22T04:10:56.820Z,97392.59
2023-05-22T04:13:25.077Z,97393.03
2023-05-22T04:15:53.743Z,97394.19
2023-05-22T04:18:23.451Z,97395.97
2023-05-22T04:20:52.096Z,97394.19
2023-05-22T04:23:20.350Z,97386.44
2023-05-22T04:25:49.141Z,97379.03
2023-05-22T04:28:22.483Z,97394.59
2023-05-22T04:30:51.033Z,97391.19
2023-05-22T04:33:19.376Z,97392.09
2023-05-22T04:35:48.978Z,97391.19
2023-05-22T04:38:18.524Z,97399.72
2023-05-22T04:40:46.747Z,97398.44
2023-05-22T04:43:14.954Z,97395.94
2023-05-22T04:45:43.634Z,97392.00
2023-05-22T04:48:12.763Z,97397.41
2023-05-22T04:50:41.334Z,97396.25
2023-05-22T04:53:12.817Z,97401.75
2023-05-22T04:55:41.027Z,97379.03
2023-05-22T04:58:09.357Z,97403.81
2023-05-22T05:00:37.935Z,97352.59
2023-05-22T05:03:08.293Z,97405.91
2023-05-22T05:05:36.811Z,97404.22
2023-05-22T05:08:05.049Z,97404.13
2023-05-22T05:10:34.712Z,97395.88
2023-05-22T05:13:02.919Z,97401.81
2023-05-22T05:15:31.116Z,97385.53
2023-05-22T05:17:59.418Z,97407.13
2023-05-22T05:20:27.744Z,97415.28
2023-05-22T05:22:56.154Z,97406.28
2023-05-22T05:25:24.348Z,97417.34
2023-05-22T05:27:53.989Z,97415.84
2023-05-22T05:30:22.187Z,97414.00
2023-05-22T05:32:50.455Z,97386.81
2023-05-22T05:35:18.633Z,97382.97
2023-05-22T05:37:46.772Z,97403.81
2023-05-22T05:40:16.395Z,97408.25
2023-05-22T05:42:44.571Z,97409.69
2023-05-22T05:45:15.613Z,97418.56
2023-05-22T05:47:43.798Z,97413.06
2023-05-22T05:50:15.721Z,97418.06
2023-05-22T05:52:44.054Z,97413.81
2023-05-22T05:55:12.209Z,97418.28
2023-05-22T05:57:40.900Z,97415.09
2023-05-22T06:00:11.553Z,97411.56
2023-05-22T06:02:42.033Z,97359.75
2023-05-22T06:05:11.233Z,97391.25
2023-05-22T06:07:39.983Z,97431.16
2023-05-22T06:10:09.677Z,97400.84
2023-05-22T06:12:37.968Z,97402.03
2023-05-22T06:15:07.509Z,97406.47
2023-05-22T06:17:37.363Z,97384.50
2023-05-22T06:20:09.347Z,97409.94
2023-05-22T06:22:37.781Z,97402.03
2023-05-22T06:25:06.881Z,97407.19
2023-05-22T06:27:35.603Z,97406.38
2023-05-22T06:30:04.878Z,97403.75
2023-05-22T06:32:33.473Z,97407.31
2023-05-22T06:35:01.879Z,97404.31
2023-05-22T06:37:35.661Z,97349.41
2023-05-22T06:40:04.097Z,97389.59
2023-05-22T06:42:32.306Z,97385.50
2023-05-22T06:45:00.538Z,97409.00
2023-05-22T06:47:28.912Z,97409.66
2023-05-22T06:49:57.142Z,97407.94
2023-05-22T06:52:25.274Z,97405.91
2023-05-22T06:54:55.351Z,97412.59
2023-05-22T06:57:24.208Z,97406.31
2023-05-22T06:59:52.618Z,97406.66
2023-05-22T07:02:20.910Z,97405.09
2023-05-22T07:04:49.183Z,97373.06
2023-05-22T07:07:17.378Z,97405.72
2023-05-22T07:09:45.798Z,97407.78
2023-05-22T07:12:15.411Z,97410.31
2023-05-22T07:14:43.772Z,97363.72
2023-05-22T07:17:11.907Z,97403.88
2023-05-22T07:19:40.057Z,97401.22
2023-05-22T07:22:08.288Z,97401.81
2023-05-22T07:24:36.542Z,97407.88
2023-05-22T07:27:04.915Z,97397.19
2023-05-22T07:29:34.443Z,97402.91
2023-05-22T07:32:02.644Z,97398.38
2023-05-22T07:34:33.390Z,97397.44
2023-05-22T07:37:02.192Z,97403.75
2023-05-22T07:39:30.367Z,97400.84
2023-05-22T07:41:59.513Z,97399.09
2023-05-22T07:44:29.178Z,97399.09
2023-05-22T07:46:59.682Z,97398.53
2023-05-22T07:49:28.028Z,97401.66
2023-05-22T07:51:56.217Z,97401.72
2023-05-22T07:54:24.690Z,97396.03
2023-05-22T07:56:53.721Z,97390.00
2023-05-22T07:59:22.162Z,97400.97
2023-05-22T08:01:50.456Z,97397.16
2023-05-22T08:04:20.360Z,97390.63
2023-05-22T08:06:48.633Z,97393.16
2023-05-22T08:09:16.991Z,97399.78
2023-05-22T08:11:45.196Z,97396.72
2023-05-22T08:14:13.436Z,97396.97
2023-05-22T08:16:41.713Z,97391.16
2023-05-22T08:19:10.155Z,97382.50
2023-05-22T08:21:40.502Z,97383.34
2023-05-22T08:24:09.356Z,97384.69
2023-05-22T08:26:37.844Z,97380.53
2023-05-22T08:29:05.976Z,97372.47
2023-05-22T08:31:34.677Z,97372.94
2023-05-22T08:34:04.879Z,97374.75
2023-05-22T08:36:34.293Z,97351.47
2023-05-22T08:39:04.174Z,97372.91
2023-05-22T08:41:32.421Z,97371.09
2023-05-22T08:44:00.707Z,97372.22
2023-05-22T08:46:31.871Z,97371.06
2023-05-22T08:49:00.233Z,97377.72
2023-05-22T08:51:31.691Z,97370.13
2023-05-22T08:54:02.094Z,97380.06
2023-05-22T08:56:35.181Z,97365.47
2023-05-22T08:59:07.056Z,97357.75
2023-05-22T09:01:35.559Z,97366.84
2023-05-22T09:04:05.051Z,97377.19
2023-05-22T09:06:33.409Z,97321.00
2023-05-22T09:11:32.422Z,97327.69
2023-05-22T09:14:09.299Z,97356.78
2023-05-22T09:16:46.700Z,97360.28
2023-05-22T09:19:15.358Z,97346.88
2023-05-22T09:21:44.587Z,97357.72
2023-05-22T09:24:13.179Z,97362.69
2023-05-22T09:26:42.882Z,97361.72
2023-05-22T09:29:11.242Z,97355.28
2023-05-22T09:31:43.959Z,97357.25
2023-05-22T09:34:14.503Z,97354.84
2023-05-22T09:36:43.135Z,97371.19
2023-05-22T09:39:11.404Z,97363.06
2023-05-22T09:41:41.369Z,97358.53
2023-05-22T09:44:17.580Z,97360.03
2023-05-22T09:46:47.360Z,97331.75
2023-05-22T09:49:17.243Z,97348.84
2023-05-22T09:51:49.024Z,97366.50
2023-05-22T09:54:18.260Z,97347.53
2023-05-22T09:56:50.348Z,97341.38
2023-05-22T09:59:23.778Z,97350.25
2023-05-22T10:01:52.328Z,97351.69
2023-05-22T10:04:23.367Z,97350.84
2023-05-22T10:06:54.177Z,97350.25
2023-05-22T10:09:26.320Z,97340.94
2023-05-22T10:11:59.232Z,97345.47
2023-05-22T10:14:30.930Z,97347.56
2023-05-22T10:17:02.351Z,97343.75
2023-05-22T10:19:33.158Z,97331.47
2023-05-22T10:22:02.192Z,97347.16
2023-05-22T10:24:31.154Z,97338.25
2023-05-22T10:26:59.447Z,97335.41
2023-05-22T10:29:37.472Z,97321.88
2023-05-22T10:32:10.787Z,97331.19
2023-05-22T10:34:49.948Z,97337.69
2023-05-22T10:37:31.737Z,97337.28
2023-05-22T10:40:05.032Z,97339.69
2023-05-22T10:42:33.418Z,97334.75
2023-05-22T10:45:04.849Z,97339.41
2023-05-22T10:47:34.787Z,97328.81
2023-05-22T10:50:09.426Z,97329.94
2023-05-22T10:52:37.828Z,97329.53
2023-05-22T10:55:10.376Z,97329.53
2023-05-22T10:57:39.912Z,97313.97
2023-05-22T11:00:18.854Z,97285.72
2023-05-22T11:02:47.386Z,97316.22
2023-05-22T11:05:35.406Z,97306.19
2023-05-22T11:08:35.403Z,97310.50
2023-05-22T11:11:13.938Z,97288.50
2023-05-22T11:13:43.760Z,97280.03
2023-05-22T11:16:13.837Z,97227.63
2023-05-22T11:18:42.089Z,97262.56
2023-05-22T11:21:14.056Z,97290.69
2023-05-22T11:23:42.945Z,97276.34
2023-05-22T11:26:22.665Z,97285.66
2023-05-22T11:28:53.480Z,97283.75
2023-05-22T11:31:24.502Z,97281.53
2023-05-22T11:33:52.716Z,97279.28
2023-05-22T11:36:22.843Z,97276.09
2023-05-22T11:38:51.057Z,97266.22
2023-05-22T11:41:19.290Z,97268.66
2023-05-22T11:43:47.573Z,97270.09
2023-05-22T11:46:16.068Z,97272.81
2023-05-22T11:48:45.962Z,97266.97
2023-05-22T11:51:14.246Z,97267.09
2023-05-22T11:53:42.941Z,97260.44
2023-05-22T11:56:11.490Z,97263.34
2023-05-22T11:58:39.698Z,97243.53
2023-05-22T12:01:07.982Z,97240.00
2023-05-22T12:03:36.311Z,97254.16
2023-05-22T12:06:06.809Z,97261.38
2023-05-22T12:08:35.702Z,97245.69
2023-05-22T12:11:07.057Z,97223.25
2023-05-22T12:13:35.256Z,97251.91
2023-05-22T12:16:03.612Z,97244.19
2023-05-22T12:18:37.735Z,97237.50
2023-05-22T12:21:09.204Z,97240.53
2023-05-22T12:23:37.371Z,97244.69
2023-05-22T12:26:11.458Z,97246.97
2023-05-22T12:28:40.455Z,97247.38
2023-05-22T12:31:08.710Z,97242.09
2023-05-22T12:33:36.969Z,97251.00
2023-05-22T12:36:10.549Z,97245.72
2023-05-22T12:38:40.355Z,97217.28
2023-05-22T12:41:08.595Z,97233.72
2023-05-22T12:43:36.866Z,97224.72
2023-05-22T12:46:05.127Z,97232.06
2023-05-22T12:48:33.375Z,97230.16
2023-05-22T12:51:01.896Z,97231.53
2023-05-22T12:53:31.671Z,97235.88
2023-05-22T12:55:59.845Z,97222.63
2023-05-22T12:58:28.145Z,97235.84
2023-05-22T13:00:56.413Z,97230.16
2023-05-22T13:03:24.666Z,97232.06
2023-05-22T13:05:52.845Z,97227.19
2023-05-22T13:08:21.064Z,97234.44
2023-05-22T13:10:50.780Z,97220.34
2023-05-22T13:13:19.011Z,97228.69
2023-05-22T13:15:47.422Z,97214.66
2023-05-22T13:18:16.601Z,97218.47
2023-05-22T13:20:45.128Z,97213.13
2023-05-22T13:23:13.357Z,97155.16
2023-05-22T13:25:41.791Z,97213.16
2023-05-22T13:28:11.501Z,97211.13
2023-05-22T13:30:40.328Z,97204.38
2023-05-22T13:33:08.836Z,97206.59
2023-05-22T13:35:37.020Z,97201.69
2023-05-22T13:38:05.370Z,97197.28
2023-05-22T13:40:33.707Z,97199.00
2023-05-22T13:43:02.032Z,97189.56
2023-05-22T13:45:31.692Z,97198.31
2023-05-22T13:47:59.912Z,97195.66
2023-05-22T13:50:28.172Z,97205.28
2023-05-22T13:52:56.688Z,97203.72
2023-05-22T13:55:25.012Z,97193.44
2023-05-22T13:57:53.130Z,97202.63
2023-05-22T14:00:22.486Z,97197.13
2023-05-22T14:02:52.450Z,97192.94
2023-05-22T14:05:21.428Z,97189.34
2023-05-22T14:07:50.547Z,97189.59
2023-05-22T14:10:19.491Z,97191.03
2023-05-22T14:12:47.714Z,97180.41
2023-05-22T14:15:17.814Z,97175.75
2023-05-22T14:17:46.974Z,97161.66
2023-05-22T14:20:16.695Z,97171.97
2023-05-22T14:22:56.613Z,97169.44
2023-05-22T14:25:25.901Z,97165.34
2023-05-22T14:27:54.358Z,97155.09
2023-05-22T14:30:22.545Z,97156.44
2023-05-22T14:32:51.032Z,97159.44
2023-05-22T14:35:20.867Z,97157.31
2023-05-22T14:37:49.198Z,97158.28
2023-05-22T14:40:17.558Z,97150.31
2023-05-22T14:42:45.917Z,97144.63
2023-05-22T14:45:14.139Z,97148.91
2023-05-22T14:47:43.314Z,97138.19
2023-05-22T14:50:19.199Z,97146.59
2023-05-22T14:52:50.310Z,97147.22
2023-05-22T14:55:19.104Z,97145.75
2023-05-22T14:57:47.295Z,97142.59
2023-05-22T15:00:16.542Z,97110.00
2023-05-22T15:02:44.918Z,97136.25
2023-05-22T15:05:13.228Z,97138.31
2023-05-22T15:07:44.452Z,97136.97
2023-05-22T15:10:14.713Z,97131.75
2023-05-22T15:12:42.909Z,97133.34
2023-05-22T15:15:11.913Z,97122.56
2023-05-22T15:17:42.582Z,97046.81
2023-05-22T15:20:12.283Z,97119.56
2023-05-22T15:22:40.734Z,97110.06
2023-05-22T15:25:11.976Z,97114.63
2023-05-22T15:27:42.337Z,97111.91
2023-05-22T15:30:12.380Z,97113.47
2023-05-22T15:32:40.799Z,97118.16
2023-05-22T15:35:10.020Z,97115.75
2023-05-22T15:37:38.296Z,97118.63
2023-05-22T15:40:09.827Z,97117.47
2023-05-22T15:42:38.336Z,97100.69
2023-05-22T15:45:09.510Z,97118.53
2023-05-22T15:47:37.706Z,97117.97
2023-05-22T15:50:06.932Z,97124.63
2023-05-22T15:52:35.065Z,97123.66
2023-05-22T15:55:03.332Z,97108.88
2023-05-22T15:57:31.513Z,97114.03
2023-05-22T15:59:59.673Z,97128.28
2023-05-22T16:02:29.317Z,97129.75
2023-05-22T16:04:57.707Z,97125.50
2023-05-22T16:07:25.894Z,97120.97
2023-05-22T16:09:54.411Z,97119.09
2023-05-22T16:12:22.757Z,97113.09
2023-05-22T16:14:51.021Z,97123.31
2023-05-22T16:17:19.247Z,97127.09
2023-05-22T16:19:48.818Z,97126.59
2023-05-22T16:22:17.113Z,97125.69
2023-05-22T16:24:45.355Z,97129.69
2023-05-22T16:27:13.581Z,97128.72
2023-05-22T16:29:42.288Z,97128.78
2023-05-22T16:32:10.514Z,97127.97
2023-05-22T16:34:39.169Z,97128.47
2023-05-22T16:37:08.997Z,97079.78
2023-05-22T16:39:39.957Z,97122.78
2023-05-22T16:42:08.309Z,97123.56
2023-05-22T16:44:36.504Z,97131.72
2023-05-22T16:47:05.000Z,97143.72
2023-05-22T16:49:33.268Z,97140.16
2023-05-22T16:52:01.460Z,97127.84
2023-05-22T16:54:31.039Z,97133.84
2023-05-22T16:56:59.246Z,97136.78
2023-05-22T16:59:27.428Z,97140.44
2023-05-22T17:01:55.870Z,97139.91
2023-05-22T17:04:24.127Z,97142.31
2023-05-22T17:06:53.778Z,97135.41
2023-05-22T17:09:22.006Z,97136.38
2023-05-22T17:11:51.606Z,97138.66
2023-05-22T17:14:21.829Z,97142.09
2023-05-22T17:16:50.244Z,97150.03
2023-05-22T17:19:18.911Z,97145.78
2023-05-22T17:21:47.244Z,97148.38
2023-05-22T17:24:15.463Z,97151.97
2023-05-22T17:26:44.126Z,97153.53
2023-05-22T17:29:13.703Z,97152.81
2023-05-22T17:31:42.044Z,97159.88
2023-05-22T17:34:10.292Z,97163.91
2023-05-22T17:36:38.597Z,97099.09
2023-05-22T17:39:06.767Z,97156.34
2023-05-22T17:41:35.169Z,97165.66
2023-05-22T17:44:03.322Z,97172.88
2023-05-22T17:46:33.308Z,97171.34
2023-05-22T17:49:01.529Z,97166.00
2023-05-22T17:51:29.756Z,97173.19
2023-05-22T17:53:59.177Z,97178.72
2023-05-22T17:56:27.925Z,97181.41
2023-05-22T17:58:56.247Z,97187.19
2023-05-22T18:01:24.686Z,97182.56
2023-05-22T18:03:54.456Z,97183.03
2023-05-22T18:06:24.349Z,97181.31
2023-05-22T18:08:53.327Z,97170.28
2023-05-22T18:11:21.523Z,97168.31
2023-05-22T18:13:49.751Z,97174.56
2023-05-22T18:16:18.975Z,97173.56
2023-05-22T18:18:47.170Z,97165.25
2023-05-22T18:21:16.964Z,97175.53
2023-05-22T18:23:45.199Z,97170.72
2023-05-22T18:26:13.453Z,97167.88
2023-05-22T18:28:42.726Z,97171.41
2023-05-22T18:31:11.124Z,97098.72
2023-05-22T18:33:40.281Z,97187.44
2023-05-22T18:36:08.550Z,97197.81
2023-05-22T18:38:38.248Z,97188.88
2023-05-22T18:41:07.143Z,97201.72
2023-05-22T18:43:35.429Z,97202.00
2023-05-22T18:46:03.659Z,97191.69
2023-05-22T18:48:33.313Z,97213.78
2023-05-22T18:51:01.726Z,97209.47
2023-05-22T18:53:30.187Z,97224.69
2023-05-22T18:55:59.842Z,97231.94
2023-05-22T18:58:28.068Z,97222.66
2023-05-22T19:00:56.836Z,97234.72
2023-05-22T19:03:25.116Z,97240.75
2023-05-22T19:05:53.877Z,97237.28
2023-05-22T19:08:22.275Z,97242.56
2023-05-22T19:10:50.460Z,97245.72
2023-05-22T19:13:20.293Z,97243.75
2023-05-22T19:15:48.606Z,97246.09
2023-05-22T19:18:17.125Z,97249.94
2023-05-22T19:20:45.409Z,97248.78
2023-05-22T19:23:14.063Z,97250.63
2023-05-22T19:25:42.366Z,97251.88
2023-05-22T19:28:10.577Z,97252.81
2023-05-22T19:30:41.345Z,97256.19
2023-05-22T19:33:11.203Z,97262.03
2023-05-22T19:35:39.743Z,97256.31
2023-05-22T19:40:36.261Z,97268.81
2023-05-22T19:43:04.584Z,97262.38
2023-05-22T19:45:32.712Z,97264.66
2023-05-22T19:48:02.527Z,97266.97
2023-05-22T19:50:30.839Z,97269.28
2023-05-22T19:52:59.696Z,97260.78
2023-05-22T19:55:27.937Z,97264.91
2023-05-22T19:57:56.162Z,97260.03
2023-05-22T20:00:28.532Z,97257.66
2023-05-22T20:02:56.754Z,97273.28
2023-05-22T20:05:26.455Z,97278.34
2023-05-22T20:07:54.732Z,97268.72
2023-05-22T20:10:24.015Z,97263.34
2023-05-22T20:12:54.255Z,97274.00
2023-05-22T20:15:23.078Z,97272.88
2023-05-22T20:17:53.189Z,97263.75
2023-05-22T20:20:21.668Z,97259.94
2023-05-22T20:22:51.630Z,97245.88
2023-05-22T20:25:21.398Z,97241.00
2023-05-22T20:27:49.600Z,97270.78
2023-05-22T20:30:17.942Z,97277.75
2023-05-22T20:32:46.992Z,97279.03
2023-05-22T20:35:18.997Z,97290.78
2023-05-22T20:37:47.666Z,97292.69
2023-05-22T20:40:17.776Z,97298.75
2023-05-22T20:42:47.654Z,97290.00
2023-05-22T20:45:16.601Z,97294.94
2023-05-22T20:47:44.856Z,97294.31
2023-05-22T20:50:13.360Z,97279.00
2023-05-22T20:52:41.648Z,97288.06
2023-05-22T20:55:10.892Z,97290.81
2023-05-22T20:57:40.619Z,97285.06
2023-05-22T21:00:14.051Z,97291.03
2023-05-22T21:02:42.458Z,97231.84
2023-05-22T21:05:11.383Z,97287.00
2023-05-22T21:07:39.573Z,97283.38
2023-05-22T21:10:09.146Z,97292.56
2023-05-22T21:12:37.557Z,97283.81
2023-05-22T21:15:08.811Z,97295.53
2023-05-22T21:17:37.229Z,97292.44
2023-05-22T21:20:05.856Z,97297.88
2023-05-22T21:22:34.128Z,97303.94
2023-05-22T21:25:02.270Z,97303.41
2023-05-22T21:27:30.472Z,97303.09
2023-05-22T21:29:58.769Z,97300.44
2023-05-22T21:32:28.388Z,97304.13
2023-05-22T21:34:56.668Z,97272.53
2023-05-22T21:37:25.782Z,97308.38
2023-05-22T21:39:53.901Z,97310.19
2023-05-22T21:42:22.521Z,97290.06
2023-05-22T21:44:50.670Z,97298.91
2023-05-22T21:47:19.063Z,97302.28
2023-05-22T21:49:48.667Z,97306.00
2023-05-22T21:52:17.181Z,97301.34
2023-05-22T21:54:45.373Z,97295.06
2023-05-22T21:57:13.593Z,97294.72
2023-05-22T21:59:41.776Z,97294.31
2023-05-22T22:02:10.078Z,97289.63
2023-05-22T22:04:38.235Z,97297.78
2023-05-22T22:07:07.910Z,97297.16
2023-05-22T22:09:36.080Z,97280.00
2023-05-22T22:12:04.373Z,97273.31
2023-05-22T22:14:32.596Z,97286.81
2023-05-22T22:17:01.003Z,97294.16
2023-05-22T22:19:29.382Z,97268.00
2023-05-22T22:21:57.847Z,97286.47
2023-05-22T22:24:27.492Z,97287.44
2023-05-22T22:26:55.647Z,97290.38
2023-05-22T22:29:23.801Z,97282.66
2023-05-22T22:31:53.083Z,97290.72
2023-05-22T22:34:21.480Z,97286.38
2023-05-22T22:36:49.659Z,97287.78
2023-05-22T22:39:17.944Z,97295.56
2023-05-22T22:41:47.479Z,97292.56
2023-05-22T22:44:15.705Z,97292.13
2023-05-22T22:46:44.309Z,97286.81
2023-05-22T22:49:12.868Z,97291.63
2023-05-22T22:51:41.126Z,97282.69
2023-05-22T22:54:09.269Z,97290.44
2023-05-22T22:56:37.503Z,97282.59
2023-05-22T22:59:07.117Z,97280.97
2023-05-22T23:01:35.338Z,97281.28
2023-05-22T23:04:03.694Z,97274.28
2023-05-22T23:06:33.110Z,97230.94
2023-05-22T23:09:02.855Z,97271.50
2023-05-22T23:11:37.488Z,97271.13
2023-05-22T23:14:08.578Z,97270.16
2023-05-22T23:16:37.295Z,97265.59
2023-05-22T23:19:05.940Z,97265.75
2023-05-22T23:21:34.765Z,97259.03
2023-05-22T23:24:05.412Z,97265.47
2023-05-22T23:26:34.384Z,97265.19
2023-05-22T23:29:03.006Z,97231.03
2023-05-22T23:31:32.869Z,97255.19
2023-05-22T23:34:01.169Z,97260.38
2023-05-22T23:36:30.279Z,97243.34
2023-05-22T23:38:58.394Z,97248.28
2023-05-22T23:41:27.621Z,97245.97
2023-05-22T23:43:55.898Z,97237.94
2023-05-22T23:46:24.729Z,97237.28
2023-05-22T23:48:54.374Z,97236.03
2023-05-22T23:51:22.513Z,97235.75
2023-05-22T23:53:50.744Z,97240.31
2023-05-22T23:56:18.873Z,97202.63
2023-05-22T23:58:47.036Z,97236.78
